TimeAKDT,TemperatureF,Dew PointF,Humidity,Sea Level PressureIn,VisibilityMPH,Wind Direction,Wind SpeedMPH,Gust SpeedMPH,PrecipitationIn,Events,Conditions,WindDirDegrees,DateUTC
12:56 AM,34.9,32.0,89,29.66,10.0,North,-9999.0,-,0.00,,Overcast,0,2012-10-06 08:56:00
1:56 AM,34.9,32.0,89,29.66,10.0,North,-9999.0,-,0.00,,Mostly Cloudy,0,2012-10-06 09:56:00
2:04 AM,35.6,32.0,87,29.65,10.0,North,-9999.0,-,N/A,,Mostly Cloudy,0,2012-10-06 10:04:00
2:56 AM,34.9,32.9,92,29.66,10.0,North,-9999.0,-,0.00,,Overcast,0,2012-10-06 10:56:00
3:56 AM,35.6,33.8,93,29.65,10.0,North,-9999.0,-,N/A,,Mostly Cloudy,0,2012-10-06 11:56:00
4:56 AM,34.9,32.0,89,29.66,10.0,North,-9999.0,-,N/A,,Scattered Clouds,0,2012-10-06 12:56:00
5:56 AM,34.9,32.9,92,29.65,10.0,North,-9999.0,-,0.00,,Scattered Clouds,0,2012-10-06 13:56:00
6:56 AM,35.6,33.8,93,29.65,10.0,North,-9999.0,-,N/A,,Overcast,0,2012-10-06 14:56:00
7:03 AM,35.6,33.8,93,29.65,10.0,North,-9999.0,-,0.00,,Overcast,0,2012-10-06 15:03:00
7:37 AM,35.6,33.8,93,29.65,10.0,North,-9999.0,-,0.00,,Scattered Clouds,0,2012-10-06 15:37:00
7:56 AM,34.9,32.0,89,29.66,10.0,North,-9999.0,-,0.00,,Partly Cloudy,0,2012-10-06 15:56:00
8:56 AM,34.9,32.9,92,29.68,10.0,North,-9999.0,-,0.00,,Overcast,0,2012-10-06 16:56:00
9:56 AM,36.0,32.9,89,29.70,10.0,North,-9999.0,-,0.00,,Overcast,0,2012-10-06 17:56:00
10:08 AM,35.6,33.8,93,29.69,10.0,North,-9999.0,-,0.00,,Overcast,0,2012-10-06 18:08:00
10:40 AM,37.4,33.8,87,29.70,9.0,North,-9999.0,-,0.00,,Overcast,0,2012-10-06 18:40:00
10:56 AM,36.0,32.9,89,29.72,9.0,North,-9999.0,-,0.00,,Overcast,0,2012-10-06 18:56:00
11:33 AM,35.6,33.8,93,29.72,10.0,North,-9999.0,-,0.00,,Overcast,0,2012-10-06 19:33:00
11:56 AM,34.9,32.9,92,29.74,10.0,North,-9999.0,-,0.00,,Mostly Cloudy,0,2012-10-06 19:56:00
12:56 PM,35.6,33.8,93,29.74,10.0,North,-9999.0,-,N/A,,Mostly Cloudy,0,2012-10-06 20:56:00
1:56 PM,36.9,34.9,93,29.77,10.0,North,-9999.0,-,N/A,,Scattered Clouds,0,2012-10-06 21:56:00
2:56 PM,36.9,34.9,93,29.79,10.0,North,-9999.0,-,0.00,,Scattered Clouds,0,2012-10-06 22:56:00
3:46 PM,37.4,35.6,93,29.79,5.0,North,-9999.0,-,0.00,Rain,Light Rain,0,2012-10-06 23:46:00
3:56 PM,37.4,33.8,87,29.79,5.0,North,-9999.0,-,N/A,,Overcast,0,2012-10-06 23:56:00
4:44 PM,37.4,33.8,87,29.80,10.0,North,-9999.0,-,0.00,,Mostly Cloudy,0,2012-10-07 00:44:00
4:56 PM,36.9,32.9,86,29.81,10.0,North,-9999.0,-,0.00,,Mostly Cloudy,0,2012-10-07 00:56:00
5:56 PM,36.0,32.9,89,29.82,10.0,North,-9999.0,-,N/A,,Partly Cloudy,0,2012-10-07 01:56:00
6:56 PM,33.8,32.0,93,29.82,10.0,North,-9999.0,-,N/A,,Clear,0,2012-10-07 02:56:00
7:56 PM,34.9,31.1,86,29.84,10.0,North,-9999.0,-,N/A,,Mostly Cloudy,0,2012-10-07 03:56:00
8:56 PM,32.9,30.0,89,29.86,10.0,North,-9999.0,-,N/A,,Overcast,0,2012-10-07 04:56:00
9:56 PM,32.0,28.4,87,29.86,10.0,North,-9999.0,-,N/A,,Mostly Cloudy,0,2012-10-07 05:56:00
10:56 PM,32.9,30.0,89,29.87,10.0,North,-9999.0,-,N/A,,Mostly Cloudy,0,2012-10-07 06:56:00
11:05 PM,33.8,30.2,87,29.86,10.0,North,-9999.0,-,0.00,,Mostly Cloudy,0,2012-10-07 07:05:00
11:16 PM,33.8,30.2,87,29.86,10.0,North,-9999.0,-,0.00,,Overcast,0,2012-10-07 07:16:00
11:56 PM,34.0,32.0,92,29.89,7.0,North,-9999.0,-,0.00,,Overcast,0,2012-10-07 07:56:00